Time;durP1;ratioP1;P1;durP2;ratioP2;P2;SDS_P1;SDS_P2;PMS_P1;PMS_P2;Temp;Humidity;BMP_temperature;BMP_pressure;BME280_temperature;BME280_humidity;BME280_pressure;Samples;Min_cycle;Max_cycle;Signal;HPM_P1;HPM_P2
2021/08/02 00:01:40;;;;;;;12.40;8.40;;;16.60;95.90;;;;;;5095906;28;20016;-59
2021/08/02 00:04:09;;;;;;;9.20;7.80;;;16.70;95.80;;;;;;5097381;28;20403;-59
2021/08/02 00:06:49;;;;;;;8.93;7.97;;;16.80;95.80;;;;;;5097931;28;20040;-56
2021/08/02 00:09:20;;;;;;;10.50;9.43;;;16.90;95.60;;;;;;5094592;28;20039;-51
2021/08/02 00:11:52;;;;;;;8.73;7.82;;;17.10;95.70;;;;;;5096030;28;20024;-56
2021/08/02 00:14:21;;;;;;;10.10;9.10;;;17.30;94.80;;;;;;5095704;28;20044;-55
2021/08/02 00:16:47;;;;;;;9.38;7.80;;;17.40;95.20;;;;;;5096763;28;20483;-52
2021/08/02 00:19:13;;;;;;;7.93;7.13;;;17.40;94.90;;;;;;5095659;28;20024;-56
2021/08/02 00:21:41;;;;;;;8.98;7.15;;;17.50;94.70;;;;;;5096422;28;20040;-54
2021/08/02 00:24:07;;;;;;;11.82;8.20;;;17.60;94.60;;;;;;5095558;28;20020;-54
2021/08/02 00:26:33;;;;;;;9.32;8.10;;;17.70;94.70;;;;;;5095273;28;20047;-54
2021/08/02 00:29:00;;;;;;;7.32;6.55;;;17.70;94.80;;;;;;5095844;28;20146;-51
2021/08/02 00:31:27;;;;;;;9.15;7.55;;;17.80;94.60;;;;;;5095808;28;20065;-55
2021/08/02 00:33:52;;;;;;;8.10;7.30;;;17.80;94.80;;;;;;5096000;28;20036;-51
2021/08/02 00:36:39;;;;;;;7.90;7.07;;;17.80;95.10;;;;;;5094212;28;20147;-56
2021/08/02 00:39:06;;;;;;;8.68;7.50;;;17.70;94.90;;;;;;5095029;28;20106;-51
2021/08/02 00:42:09;;;;;;;7.57;6.72;;;17.70;95.00;;;;;;5093786;28;20038;-56
2021/08/02 00:44:59;;;;;;;8.50;7.30;;;17.80;94.30;;;;;;5081707;28;20028;-54
2021/08/02 00:47:30;;;;;;;7.72;6.93;;;17.70;94.50;;;;;;5094918;28;20043;-53
2021/08/02 00:50:03;;;;;;;8.98;8.10;;;17.70;94.70;;;;;;5095511;28;20028;-52
2021/08/02 00:52:30;;;;;;;14.25;12.77;;;17.80;94.90;;;;;;5080337;28;20047;-54
2021/08/02 00:55:00;;;;;;;10.85;9.80;;;17.80;95.10;;;;;;5095683;28;20051;-54
2021/08/02 00:57:30;;;;;;;10.98;8.80;;;17.70;95.30;;;;;;5061225;28;20020;-56
2021/08/02 01:00:01;;;;;;;7.30;6.60;;;17.70;95.00;;;;;;5094849;28;20054;-54
2021/08/02 01:02:28;;;;;;;6.95;6.30;;;17.70;94.70;;;;;;5095174;28;20035;-54
2021/08/02 01:04:54;;;;;;;10.55;7.13;;;17.60;95.10;;;;;;5094769;28;20032;-53
2021/08/02 01:07:21;;;;;;;7.85;7.05;;;17.60;95.50;;;;;;5093860;28;20035;-54
2021/08/02 01:09:48;;;;;;;9.60;6.93;;;17.50;95.50;;;;;;5095707;28;20095;-53
2021/08/02 01:12:15;;;;;;;9.98;7.47;;;17.50;95.80;;;;;;5094707;28;20027;-57
2021/08/02 01:14:41;;;;;;;7.80;6.45;;;17.40;95.70;;;;;;5094924;28;20027;-53
2021/08/02 01:17:10;;;;;;;9.43;7.30;;;17.40;95.70;;;;;;5094222;28;20012;-55
2021/08/02 01:19:37;;;;;;;8.05;6.72;;;17.30;95.80;;;;;;5082591;28;20033;-53
2021/08/02 01:22:04;;;;;;;8.38;6.72;;;17.30;95.50;;;;;;5094607;28;20103;-53
2021/08/02 01:24:33;;;;;;;6.78;6.13;;;17.40;95.30;;;;;;5094895;28;20044;-53
2021/08/02 01:26:59;;;;;;;7.78;5.88;;;17.40;95.30;;;;;;5094981;28;20032;-57
2021/08/02 01:30:02;;;;;;;6.28;5.68;;;17.40;95.20;;;;;;5094650;28;20038;-52
2021/08/02 01:32:28;;;;;;;8.98;5.57;;;17.30;95.10;;;;;;5094130;28;20087;-56
2021/08/02 01:34:54;;;;;;;8.60;7.15;;;17.10;95.50;;;;;;5093841;28;20028;-53
2021/08/02 01:37:20;;;;;;;9.05;7.50;;;17.10;95.80;;;;;;5093453;28;20020;-57
2021/08/02 01:39:53;;;;;;;8.80;7.90;;;16.80;96.70;;;;;;5093783;28;20081;-51
2021/08/02 01:42:19;;;;;;;9.07;7.60;;;16.70;97.50;;;;;;5091473;28;20032;-56
2021/08/02 01:44:45;;;;;;;7.47;6.68;;;16.90;97.10;;;;;;5075693;28;20149;-51
2021/08/02 01:47:16;;;;;;;8.73;7.82;;;17.00;96.90;;;;;;5093653;28;20036;-52
2021/08/02 01:49:52;;;;;;;8.77;7.88;;;17.00;96.40;;;;;;5093959;28;20118;-54
2021/08/02 01:52:25;;;;;;;10.40;8.65;;;17.10;96.60;;;;;;5094500;28;20032;-54
2021/08/02 01:55:06;;;;;;;10.57;8.35;;;17.00;96.60;;;;;;5094529;28;20024;-52
2021/08/02 01:58:00;;;;;;;10.10;9.13;;;16.90;96.60;;;;;;5093698;28;20024;-52
2021/08/02 02:00:29;;;;;;;8.90;8.05;;;16.80;96.30;;;;;;5075965;28;20027;-54
2021/08/02 02:03:01;;;;;;;9.70;8.55;;;16.70;96.50;;;;;;5093998;28;20054;-51
2021/08/02 02:05:38;;;;;;;10.43;8.60;;;16.90;96.00;;;;;;5093638;28;20058;-53
2021/08/02 02:08:31;;;;;;;13.20;10.45;;;16.70;96.50;;;;;;5075797;28;20107;-55
2021/08/02 02:11:00;;;;;;;10.50;9.40;;;16.70;96.60;;;;;;5094224;28;20387;-51
2021/08/02 02:13:38;;;;;;;10.90;9.70;;;16.80;96.50;;;;;;5094154;28;20027;-53
2021/08/02 02:16:05;;;;;;;10.82;8.95;;;16.80;96.40;;;;;;5093085;28;20058;-55
2021/08/02 02:18:34;;;;;;;11.82;9.27;;;16.80;96.50;;;;;;5085156;28;20116;-53
2021/08/02 02:21:02;;;;;;;10.60;9.25;;;16.70;96.90;;;;;;5093060;28;20032;-51
2021/08/02 02:23:28;;;;;;;11.52;9.00;;;16.70;96.90;;;;;;5093514;28;20035;-50
2021/08/02 02:25:55;;;;;;;9.85;8.95;;;16.80;96.70;;;;;;5093111;28;20039;-54
2021/08/02 02:28:21;;;;;;;11.05;9.63;;;16.80;97.00;;;;;;5093447;28;20129;-52
2021/08/02 02:30:51;;;;;;;12.30;9.52;;;16.80;97.00;;;;;;5092954;28;20032;-56
2021/08/02 02:33:18;;;;;;;10.73;9.55;;;16.80;96.90;;;;;;5092744;28;20445;-54
2021/08/02 02:35:46;;;;;;;12.98;10.00;;;16.70;97.20;;;;;;5092714;28;20069;-52
2021/08/02 02:38:13;;;;;;;11.75;10.32;;;16.80;97.10;;;;;;5093260;28;20119;-51
2021/08/02 02:40:43;;;;;;;12.10;10.82;;;16.80;96.90;;;;;;5093432;28;20052;-54
2021/08/02 02:43:11;;;;;;;13.18;10.30;;;16.80;97.00;;;;;;5092840;28;20070;-55
2021/08/02 02:45:37;;;;;;;10.93;9.82;;;16.60;97.40;;;;;;5093028;28;20028;-54
2021/08/02 02:48:05;;;;;;;14.05;11.80;;;16.60;97.60;;;;;;5093439;28;20038;-54
2021/08/02 02:50:32;;;;;;;13.07;11.77;;;16.30;98.10;;;;;;5093231;28;20027;-53
2021/08/02 02:53:00;;;;;;;15.50;11.50;;;16.10;98.60;;;;;;5093028;28;20089;-56
2021/08/02 02:55:29;;;;;;;13.32;11.80;;;16.10;98.70;;;;;;5074275;28;20085;-54
2021/08/02 02:57:55;;;;;;;12.48;10.60;;;16.20;98.30;;;;;;5092284;28;20042;-56
2021/08/02 03:00:21;;;;;;;12.43;11.02;;;16.30;98.20;;;;;;5074275;28;20028;-51
2021/08/02 03:02:49;;;;;;;13.07;11.70;;;16.40;97.90;;;;;;5092310;28;20020;-53
2021/08/02 03:05:16;;;;;;;13.20;11.77;;;16.30;98.00;;;;;;5092185;28;20071;-52
2021/08/02 03:07:43;;;;;;;14.75;11.55;;;16.20;98.30;;;;;;5074165;28;20105;-53
2021/08/02 03:10:12;;;;;;;16.40;12.35;;;16.00;98.80;;;;;;5080248;28;20097;-52
2021/08/02 03:12:38;;;;;;;17.10;12.20;;;15.90;99.00;;;;;;5090610;28;20032;-53
2021/08/02 03:15:04;;;;;;;13.48;11.15;;;15.90;99.00;;;;;;5093711;28;20506;-54
2021/08/02 03:17:30;;;;;;;12.90;11.60;;;16.00;99.00;;;;;;5091587;28;20044;-57
2021/08/02 03:19:56;;;;;;;16.42;12.50;;;16.00;98.90;;;;;;5084339;28;20035;-54
2021/08/02 03:22:30;;;;;;;13.85;12.50;;;15.90;99.30;;;;;;5092377;28;20024;-54
2021/08/02 03:25:09;;;;;;;;;;;15.80;99.60;;;;;;5092516;28;20115;-55
2021/08/02 03:27:43;;;;;;;14.18;12.80;;;15.70;99.80;;;;;;5091757;28;19990;-52
2021/08/02 03:30:13;;;;;;;14.10;12.60;;;15.80;99.80;;;;;;5091552;28;20025;-54
2021/08/02 03:32:42;;;;;;;14.40;12.93;;;15.80;99.40;;;;;;5092011;28;20040;-55
2021/08/02 03:35:11;;;;;;;15.30;12.35;;;15.90;99.50;;;;;;5091663;28;20028;-53
2021/08/02 03:37:38;;;;;;;16.92;13.43;;;16.00;99.10;;;;;;5093066;28;20024;-50
2021/08/02 03:40:06;;;;;;;14.45;12.73;;;15.70;99.60;;;;;;5091769;28;20483;-51
2021/08/02 03:42:35;;;;;;;15.27;13.30;;;15.90;99.80;;;;;;5091579;28;20541;-53
2021/08/02 03:45:02;;;;;;;14.30;12.55;;;16.00;99.30;;;;;;5091850;28;20450;-54
2021/08/02 03:47:28;;;;;;;13.70;12.40;;;15.90;99.50;;;;;;5073680;28;20039;-54
2021/08/02 03:49:54;;;;;;;15.50;13.38;;;16.10;99.00;;;;;;5092165;28;20082;-53
2021/08/02 03:52:19;;;;;;;18.10;14.18;;;15.90;99.30;;;;;;5091565;28;20372;-52
2021/08/02 03:54:45;;;;;;;14.82;13.27;;;15.80;99.70;;;;;;5091751;28;20032;-52
2021/08/02 03:57:12;;;;;;;16.55;14.82;;;15.80;99.70;;;;;;5091246;28;20055;-54
2021/08/02 03:59:37;;;;;;;15.10;13.50;;;15.70;99.80;;;;;;5091449;28;20046;-52
2021/08/02 04:02:03;;;;;;;15.35;13.65;;;15.80;99.50;;;;;;5059389;28;20025;-53
2021/08/02 04:04:29;;;;;;;15.02;12.48;;;16.10;99.20;;;;;;5092194;28;20445;-55
2021/08/02 04:06:55;;;;;;;16.65;12.88;;;16.10;99.20;;;;;;5090970;28;20086;-56
2021/08/02 04:09:20;;;;;;;15.73;13.75;;;16.20;98.90;;;;;;5091153;28;20024;-53
2021/08/02 04:11:46;;;;;;;13.98;12.57;;;16.20;98.90;;;;;;5091157;28;20034;-56
2021/08/02 04:14:13;;;;;;;15.27;13.80;;;16.40;98.60;;;;;;5072664;28;20040;-53
2021/08/02 04:16:39;;;;;;;14.27;12.88;;;16.50;98.50;;;;;;5090707;28;20024;-53
2021/08/02 04:19:05;;;;;;;14.60;13.07;;;16.40;99.00;;;;;;5083167;28;20091;-54
2021/08/02 04:21:31;;;;;;;13.00;11.77;;;16.30;99.30;;;;;;5091017;28;20408;-53
2021/08/02 04:23:57;;;;;;;14.50;12.73;;;16.40;99.10;;;;;;5091369;28;20043;-56
2021/08/02 04:26:23;;;;;;;14.50;13.05;;;16.50;98.50;;;;;;5091284;28;20445;-52
2021/08/02 04:28:55;;;;;;;14.07;12.18;;;16.60;98.40;;;;;;5091677;28;20135;-54
2021/08/02 04:31:21;;;;;;;14.55;12.82;;;16.60;98.50;;;;;;5092678;28;20080;-54
2021/08/02 04:33:46;;;;;;;14.02;11.60;;;16.60;98.50;;;;;;5091127;28;20437;-54
2021/08/02 04:36:12;;;;;;;12.00;10.57;;;16.50;98.60;;;;;;5091453;28;20028;-53
2021/08/02 04:38:38;;;;;;;13.05;11.15;;;16.40;98.90;;;;;;5091069;28;20020;-53
2021/08/02 04:41:03;;;;;;;13.35;11.95;;;16.50;98.70;;;;;;5091475;28;20416;-54
2021/08/02 04:43:29;;;;;;;11.90;10.75;;;16.20;99.30;;;;;;5094082;28;20399;-56
2021/08/02 04:45:54;;;;;;;13.45;12.05;;;16.30;99.20;;;;;;5086953;28;20033;-55
2021/08/02 04:48:20;;;;;;;13.10;11.63;;;16.10;99.50;;;;;;5071139;28;20467;-55
2021/08/02 04:50:47;;;;;;;12.20;10.98;;;16.10;99.90;;;;;;5095130;28;20035;-65
2021/08/02 04:53:13;;;;;;;10.98;9.88;;;16.10;99.90;;;;;;5094579;28;20595;-62
2021/08/02 04:55:39;;;;;;;12.80;11.13;;;16.10;99.60;;;;;;5094674;28;20027;-60
2021/08/02 04:58:05;;;;;;;12.25;8.98;;;15.90;99.90;;;;;;5094832;28;20036;-60
2021/08/02 05:00:31;;;;;;;9.85;8.95;;;15.80;99.50;;;;;;5095189;28;20036;-59
2021/08/02 05:02:56;;;;;;;8.68;7.88;;;15.70;99.60;;;;;;5095530;28;20057;-57
2021/08/02 05:05:22;;;;;;;7.93;7.18;;;15.80;99.30;;;;;;5094214;28;20050;-56
2021/08/02 05:07:48;;;;;;;9.38;8.38;;;15.80;99.20;;;;;;5095606;28;20048;-57
2021/08/02 05:10:14;;;;;;;8.77;7.72;;;15.80;99.30;;;;;;5076025;28;20403;-57
2021/08/02 05:12:40;;;;;;;12.93;8.45;;;15.90;99.50;;;;;;5094157;28;20060;-55
2021/08/02 05:15:08;;;;;;;8.80;7.90;;;16.00;99.10;;;;;;5094541;28;20040;-55
2021/08/02 05:17:33;;;;;;;10.25;8.38;;;16.10;99.20;;;;;;5093775;28;20487;-55
2021/08/02 05:19:59;;;;;;;9.52;7.70;;;16.20;98.80;;;;;;5064697;28;20032;-55
2021/08/02 05:22:25;;;;;;;8.23;7.43;;;16.10;98.90;;;;;;5094427;28;20032;-54
2021/08/02 05:24:50;;;;;;;9.00;7.28;;;16.20;98.30;;;;;;5095898;28;20040;-53
2021/08/02 05:27:16;;;;;;;8.80;7.78;;;16.20;98.50;;;;;;5095178;28;20040;-53
2021/08/02 05:29:41;;;;;;;9.80;7.38;;;16.20;98.60;;;;;;5056147;28;20055;-55
2021/08/02 05:32:07;;;;;;;10.20;7.32;;;15.90;98.70;;;;;;5094238;28;20515;-56
2021/08/02 05:34:32;;;;;;;8.70;7.25;;;15.80;99.10;;;;;;5096916;28;20040;-52
2021/08/02 05:36:58;;;;;;;10.18;7.78;;;15.90;99.30;;;;;;5093816;28;20043;-51
2021/08/02 05:39:24;;;;;;;9.20;7.90;;;15.90;99.10;;;;;;5094516;28;20551;-54
2021/08/02 05:41:49;;;;;;;9.27;8.15;;;16.00;99.00;;;;;;5094081;28;20020;-54
2021/08/02 05:44:15;;;;;;;9.85;8.07;;;16.10;99.00;;;;;;5093998;28;20111;-54
2021/08/02 05:46:40;;;;;;;10.05;7.30;;;16.10;99.30;;;;;;5093370;28;20044;-51
2021/08/02 05:49:06;;;;;;;13.02;7.65;;;16.20;98.70;;;;;;5094269;28;20040;-52
2021/08/02 05:51:32;;;;;;;28.88;10.55;;;16.30;98.70;;;;;;5093933;28;21677;-54
2021/08/02 05:53:57;;;;;;;36.35;11.48;;;16.40;98.40;;;;;;5093550;28;20451;-57
2021/08/02 05:56:23;;;;;;;19.67;9.25;;;16.40;98.00;;;;;;5093259;28;20032;-50
2021/08/02 05:58:49;;;;;;;10.07;8.40;;;16.20;98.90;;;;;;5093952;28;20035;-53
2021/08/02 06:01:14;;;;;;;9.82;8.07;;;16.50;98.60;;;;;;5080529;28;20128;-56
2021/08/02 06:03:40;;;;;;;8.50;7.22;;;16.60;98.20;;;;;;5091993;28;20047;-56
2021/08/02 06:06:05;;;;;;;10.88;6.15;;;16.80;97.90;;;;;;5093191;28;20032;-52
2021/08/02 06:08:31;;;;;;;8.15;6.78;;;17.00;97.40;;;;;;5093265;28;20028;-55
2021/08/02 06:10:56;;;;;;;11.52;6.43;;;17.00;97.30;;;;;;5093798;28;20120;-54
2021/08/02 06:13:22;;;;;;;7.05;5.68;;;17.10;97.30;;;;;;5093370;28;20085;-54
2021/08/02 06:15:48;;;;;;;11.20;5.25;;;17.10;96.80;;;;;;5093755;28;20098;-53
2021/08/02 06:18:13;;;;;;;6.35;4.90;;;17.10;96.30;;;;;;5091873;28;20101;-52
2021/08/02 06:20:39;;;;;;;7.43;5.50;;;16.90;97.10;;;;;;5090509;28;20046;-53
2021/08/02 06:23:04;;;;;;;5.93;4.57;;;17.00;96.90;;;;;;5092507;28;20028;-52
2021/08/02 06:25:30;;;;;;;8.73;5.22;;;17.00;96.10;;;;;;5095211;28;20028;-58
2021/08/02 06:27:56;;;;;;;9.10;4.57;;;17.00;96.70;;;;;;5096555;28;20040;-54
2021/08/02 06:30:24;;;;;;;6.35;4.28;;;16.90;96.50;;;;;;5092976;28;20449;-51
2021/08/02 06:32:49;;;;;;;5.10;4.03;;;17.00;96.20;;;;;;5095545;28;20052;-55
2021/08/02 06:35:15;;;;;;;6.93;4.28;;;16.90;95.90;;;;;;5080839;28;20040;-56
2021/08/02 06:37:42;;;;;;;7.15;4.45;;;16.70;96.50;;;;;;5098633;28;20039;-53
2021/08/02 06:40:13;;;;;;;5.35;4.35;;;16.70;96.30;;;;;;5093167;28;20053;-52
2021/08/02 06:42:39;;;;;;;5.32;4.13;;;16.50;96.90;;;;;;5088735;28;20035;-54
2021/08/02 06:45:07;;;;;;;5.43;4.18;;;16.80;96.30;;;;;;5093166;28;20365;-56
2021/08/02 06:47:35;;;;;;;6.60;4.88;;;16.80;96.20;;;;;;5092853;28;20044;-53
2021/08/02 06:50:01;;;;;;;5.75;4.32;;;16.80;96.30;;;;;;5092621;28;20031;-57
2021/08/02 06:52:28;;;;;;;7.45;4.53;;;17.00;96.30;;;;;;5091970;28;20043;-55
2021/08/02 06:54:55;;;;;;;6.60;5.18;;;17.40;95.60;;;;;;5092509;28;20040;-54
2021/08/02 06:57:21;;;;;;;6.75;4.63;;;17.10;95.70;;;;;;5091948;28;20047;-55
2021/08/02 06:59:47;;;;;;;8.75;4.72;;;17.20;95.80;;;;;;5092341;28;20024;-55
2021/08/02 07:02:12;;;;;;;7.55;4.70;;;17.40;95.30;;;;;;5094063;28;20093;-55
2021/08/02 07:04:38;;;;;;;6.18;4.47;;;17.40;94.40;;;;;;5092613;28;20036;-54
2021/08/02 07:07:04;;;;;;;8.88;4.88;;;17.20;95.10;;;;;;5091977;28;20028;-56
2021/08/02 07:09:29;;;;;;;6.55;4.38;;;17.20;94.90;;;;;;5092773;28;20062;-54
2021/08/02 07:11:55;;;;;;;8.02;4.78;;;17.30;95.10;;;;;;5092491;28;20043;-51
2021/08/02 07:14:20;;;;;;;9.95;4.85;;;17.60;95.40;;;;;;5092151;28;20039;-55
2021/08/02 07:16:48;;;;;;;8.25;5.30;;;17.50;94.30;;;;;;5092537;28;20028;-55
2021/08/02 07:19:14;;;;;;;8.93;5.68;;;17.40;95.20;;;;;;5090837;28;20071;-54
2021/08/02 07:21:40;;;;;;;16.83;6.90;;;17.20;95.80;;;;;;5091950;28;20461;-54
2021/08/02 07:24:05;;;;;;;9.02;6.35;;;17.50;95.50;;;;;;5092295;28;20024;-51
2021/08/02 07:26:31;;;;;;;9.93;6.05;;;17.80;95.30;;;;;;5092171;28;20126;-55
2021/08/02 07:29:01;;;;;;;6.38;5.55;;;17.50;95.20;;;;;;5090609;28;20044;-54
2021/08/02 07:31:27;;;;;;;6.72;5.88;;;17.80;94.50;;;;;;5073779;28;20036;-56
2021/08/02 07:33:53;;;;;;;7.07;6.00;;;17.90;94.40;;;;;;5076639;28;20177;-57
2021/08/02 07:36:18;;;;;;;6.88;6.18;;;17.70;95.20;;;;;;5064075;28;20040;-54
2021/08/02 07:38:44;;;;;;;8.82;6.32;;;17.60;95.30;;;;;;5091910;28;20032;-54
2021/08/02 07:41:11;;;;;;;8.10;7.05;;;17.60;95.40;;;;;;5083942;28;20035;-56
2021/08/02 07:43:37;;;;;;;7.68;6.70;;;17.50;95.10;;;;;;5091809;28;20036;-55
2021/08/02 07:46:03;;;;;;;6.53;5.93;;;17.70;94.80;;;;;;5090832;28;20034;-57
2021/08/02 07:48:28;;;;;;;8.85;5.72;;;17.80;94.90;;;;;;5091396;28;20035;-55
2021/08/02 07:50:54;;;;;;;7.03;5.43;;;17.70;94.40;;;;;;5091495;28;20039;-49
2021/08/02 07:53:19;;;;;;;7.28;5.40;;;17.70;94.70;;;;;;5079874;28;20403;-54
2021/08/02 07:55:45;;;;;;;5.88;4.90;;;18.00;94.10;;;;;;5075812;28;20082;-52
2021/08/02 07:58:11;;;;;;;7.47;4.72;;;17.90;93.80;;;;;;5087948;28;20028;-54
2021/08/02 08:00:37;;;;;;;5.00;4.20;;;17.80;93.70;;;;;;5092339;28;20028;-54
2021/08/02 08:03:03;;;;;;;4.22;3.58;;;17.80;93.10;;;;;;5092974;28;20577;-55
2021/08/02 08:05:29;;;;;;;4.72;3.63;;;17.60;92.50;;;;;;5091540;28;20039;-52
2021/08/02 08:07:55;;;;;;;7.05;4.13;;;17.80;92.20;;;;;;5092012;28;20035;-55
2021/08/02 08:10:23;;;;;;;4.25;3.47;;;18.00;91.90;;;;;;5086780;28;20058;-53
2021/08/02 08:12:49;;;;;;;4.95;3.20;;;18.10;91.00;;;;;;5083675;28;20035;-51
2021/08/02 08:15:17;;;;;;;9.20;3.50;;;17.90;90.00;;;;;;5090845;28;20403;-57
2021/08/02 08:17:43;;;;;;;4.53;3.30;;;17.80;90.40;;;;;;5092151;28;20020;-60
2021/08/02 08:20:12;;;;;;;5.25;4.13;;;18.00;88.40;;;;;;5092781;28;20040;-49
2021/08/02 08:22:38;;;;;;;4.20;2.85;;;17.90;88.90;;;;;;5095763;28;20032;-55
2021/08/02 08:25:05;;;;;;;6.05;3.35;;;18.10;89.00;;;;;;5095362;28;20047;-54
2021/08/02 08:27:31;;;;;;;3.60;3.05;;;18.20;87.60;;;;;;5076971;28;20043;-54
2021/08/02 08:29:56;;;;;;;3.58;2.92;;;18.20;85.60;;;;;;5083173;28;20392;-56
2021/08/02 08:32:22;;;;;;;5.53;3.88;;;18.10;85.60;;;;;;5096384;28;20038;-54
2021/08/02 08:34:48;;;;;;;4.10;3.28;;;18.20;86.40;;;;;;5095331;28;20082;-56
2021/08/02 08:37:13;;;;;;;3.72;2.90;;;18.40;84.40;;;;;;5095093;28;20024;-58
2021/08/02 08:39:39;;;;;;;4.38;2.63;;;18.50;83.50;;;;;;5093717;28;20109;-54
2021/08/02 08:42:05;;;;;;;3.40;2.92;;;18.50;80.50;;;;;;5097173;28;20116;-57
2021/08/02 08:44:31;;;;;;;4.35;2.85;;;18.40;81.40;;;;;;5094475;28;20028;-55
2021/08/02 08:46:57;;;;;;;4.78;3.40;;;18.40;82.50;;;;;;5094492;28;20039;-56
2021/08/02 08:49:22;;;;;;;5.88;3.40;;;18.60;83.50;;;;;;5093727;28;20040;-56
2021/08/02 08:51:48;;;;;;;4.32;3.08;;;18.70;82.50;;;;;;5093713;28;20071;-57
2021/08/02 08:54:14;;;;;;;4.75;2.97;;;18.80;81.10;;;;;;5093890;28;20040;-56
2021/08/02 08:56:40;;;;;;;3.90;2.97;;;18.90;82.10;;;;;;5093550;28;20491;-56
2021/08/02 08:59:08;;;;;;;5.22;3.30;;;19.10;81.90;;;;;;5075341;28;20024;-53
2021/08/02 09:01:33;;;;;;;4.40;2.90;;;19.00;81.50;;;;;;5094159;28;20100;-53
2021/08/02 09:03:59;;;;;;;5.30;3.05;;;19.20;79.60;;;;;;5094055;28;20036;-56
2021/08/02 09:06:25;;;;;;;4.35;3.42;;;19.20;80.30;;;;;;5093706;28;20124;-57
2021/08/02 09:08:51;;;;;;;5.50;3.50;;;19.20;80.30;;;;;;5092984;28;20066;-55
2021/08/02 09:11:24;;;;;;;5.25;3.45;;;19.00;81.80;;;;;;5092099;28;20112;-54
2021/08/02 09:13:50;;;;;;;5.78;3.13;;;19.10;81.80;;;;;;5091303;28;20042;-54
2021/08/02 09:16:25;;;;;;;4.70;3.30;;;19.10;79.80;;;;;;5074407;28;20040;-57
2021/08/02 09:18:59;;;;;;;3.95;2.95;;;19.30;80.50;;;;;;5074322;28;20153;-56
2021/08/02 09:21:26;;;;;;;5.80;3.47;;;19.50;79.20;;;;;;5088643;28;20387;-56
2021/08/02 09:23:55;;;;;;;6.75;3.20;;;19.80;80.60;;;;;;5093133;28;20084;-56
2021/08/02 09:26:31;;;;;;;5.57;3.60;;;20.00;78.10;;;;;;5091960;28;20618;-57
2021/08/02 09:28:57;;;;;;;4.72;3.20;;;20.10;78.10;;;;;;5091760;28;20123;-57
2021/08/02 09:31:35;;;;;;;4.50;3.40;;;20.00;76.80;;;;;;5091702;28;20174;-55
2021/08/02 09:34:05;;;;;;;3.72;3.35;;;19.90;77.60;;;;;;5093153;28;20533;-54
2021/08/02 09:36:42;;;;;;;3.90;3.28;;;19.80;77.30;;;;;;5090990;28;20032;-54
2021/08/02 09:39:10;;;;;;;7.15;3.38;;;19.70;77.30;;;;;;5093154;28;20165;-56
2021/08/02 09:41:36;;;;;;;6.05;2.90;;;19.50;77.30;;;;;;5092368;28;20032;-55
2021/08/02 09:44:03;;;;;;;4.47;3.10;;;19.70;78.40;;;;;;5092909;28;20054;-53
2021/08/02 09:46:29;;;;;;;5.32;2.75;;;20.00;78.20;;;;;;5095396;28;20514;-56
2021/08/02 09:49:01;;;;;;;4.50;3.30;;;20.40;76.20;;;;;;5091222;28;20044;-57
2021/08/02 09:51:38;;;;;;;7.70;3.10;;;20.10;77.20;;;;;;5090515;28;20044;-57
2021/08/02 09:54:04;;;;;;;4.57;3.28;;;20.00;77.20;;;;;;5092761;28;20032;-58
2021/08/02 09:56:31;;;;;;;5.55;3.10;;;20.30;75.90;;;;;;5092437;28;20052;-57
2021/08/02 09:58:56;;;;;;;4.78;3.10;;;20.30;76.60;;;;;;5095088;28;20035;-55
2021/08/02 10:01:22;;;;;;;3.92;3.25;;;20.20;77.30;;;;;;5092759;28;20028;-56
2021/08/02 10:03:48;;;;;;;5.88;3.05;;;20.40;76.40;;;;;;5092745;28;20089;-57
2021/08/02 10:06:15;;;;;;;4.88;3.30;;;20.40;75.40;;;;;;5094650;28;20035;-57
2021/08/02 10:08:41;;;;;;;4.47;3.13;;;20.20;74.50;;;;;;5092917;28;20028;-58
2021/08/02 10:11:08;;;;;;;7.15;2.95;;;20.30;75.10;;;;;;5094699;28;20028;-52
2021/08/02 10:13:42;;;;;;;5.10;2.95;;;20.40;74.50;;;;;;5095264;28;20119;-55
2021/08/02 10:16:12;;;;;;;4.28;3.45;;;20.50;73.10;;;;;;5091633;28;20028;-57
2021/08/02 10:18:38;;;;;;;3.92;2.85;;;20.40;73.40;;;;;;5089561;28;20032;-57
2021/08/02 10:21:10;;;;;;;5.13;2.97;;;20.40;74.40;;;;;;5092356;28;20032;-56
2021/08/02 10:23:37;;;;;;;3.95;2.80;;;20.40;73.70;;;;;;5091128;28;20051;-55
2021/08/02 10:26:04;;;;;;;5.72;3.55;;;20.20;73.80;;;;;;5091588;28;20028;-54
2021/08/02 10:28:29;;;;;;;4.43;3.20;;;20.30;74.80;;;;;;5091530;28;20036;-57
2021/08/02 10:31:03;;;;;;;3.33;2.83;;;20.50;73.40;;;;;;5088319;28;20035;-57
2021/08/02 10:33:39;;;;;;;4.05;2.90;;;20.60;72.30;;;;;;5077744;28;20127;-56
2021/08/02 10:36:15;;;;;;;7.40;3.28;;;20.60;72.70;;;;;;5084200;28;20027;-58
2021/08/02 10:38:44;;;;;;;3.70;2.83;;;21.00;72.50;;;;;;5090936;28;20104;-56
2021/08/02 10:41:11;;;;;;;4.97;3.00;;;20.90;72.50;;;;;;5073598;28;20049;-52
2021/08/02 10:43:38;;;;;;;7.30;3.40;;;21.00;72.60;;;;;;5090478;28;20036;-56
2021/08/02 10:46:19;;;;;;;4.15;3.10;;;21.30;71.80;;;;;;5073758;28;20032;-56
2021/08/02 10:48:45;;;;;;;3.95;2.65;;;21.10;72.50;;;;;;5093394;28;20034;-58
2021/08/02 10:51:14;;;;;;;4.75;3.20;;;21.30;71.80;;;;;;5089558;28;20391;-57
2021/08/02 10:53:40;;;;;;;7.20;3.10;;;21.10;71.20;;;;;;5093196;28;20028;-57
2021/08/02 10:56:06;;;;;;;4.50;2.88;;;21.00;72.10;;;;;;5091786;28;20039;-57
2021/08/02 10:58:38;;;;;;;3.25;2.67;;;21.10;71.20;;;;;;5092340;28;20059;-55
2021/08/02 11:01:10;;;;;;;4.07;2.70;;;21.10;71.40;;;;;;5092156;28;20024;-56
2021/08/02 11:03:38;;;;;;;4.78;2.80;;;21.10;70.50;;;;;;5083745;28;20093;-57
2021/08/02 11:06:09;;;;;;;4.55;2.90;;;21.00;70.60;;;;;;5090283;28;20032;-55
2021/08/02 11:08:52;;;;;;;3.75;3.00;;;21.40;71.20;;;;;;5092808;28;20039;-55
2021/08/02 11:11:18;;;;;;;4.20;2.50;;;21.40;70.40;;;;;;5089992;28;20047;-55
2021/08/02 11:13:44;;;;;;;3.92;2.83;;;21.70;68.20;;;;;;5065053;28;20032;-59
2021/08/02 11:16:10;;;;;;;4.07;2.70;;;21.80;68.40;;;;;;5092128;28;20020;-57
2021/08/02 11:18:36;;;;;;;3.50;2.83;;;22.00;68.20;;;;;;5055446;28;20033;-56
2021/08/02 11:21:01;;;;;;;5.35;2.65;;;22.00;66.90;;;;;;5083046;28;20491;-56
2021/08/02 11:23:33;;;;;;;3.38;2.50;;;22.00;66.10;;;;;;5092762;28;20062;-56
2021/08/02 11:26:10;;;;;;;3.30;2.80;;;21.60;67.80;;;;;;5089458;28;20453;-54
2021/08/02 11:28:38;;;;;;;5.30;2.67;;;21.70;67.80;;;;;;5089953;28;20024;-54
2021/08/02 11:31:03;;;;;;;5.43;2.58;;;21.50;66.20;;;;;;5090612;28;20028;-57
2021/08/02 11:33:32;;;;;;;3.45;2.60;;;21.30;64.40;;;;;;5090781;28;20043;-58
2021/08/02 11:35:57;;;;;;;2.63;2.30;;;21.30;63.60;;;;;;5091545;28;20055;-57
2021/08/02 11:38:37;;;;;;;3.13;2.80;;;21.30;65.10;;;;;;5089652;28;20063;-57
2021/08/02 11:41:04;;;;;;;3.83;2.42;;;21.70;65.40;;;;;;5091609;28;20020;-57
2021/08/02 11:43:37;;;;;;;4.57;2.58;;;21.80;64.30;;;;;;5089552;28;20093;-58
2021/08/02 11:46:03;;;;;;;4.03;2.50;;;21.60;63.10;;;;;;5091843;28;20566;-56
2021/08/02 11:48:29;;;;;;;4.68;2.50;;;21.30;64.80;;;;;;5091911;28;20055;-57
2021/08/02 11:50:55;;;;;;;3.38;2.45;;;21.20;64.90;;;;;;5092001;28;20043;-57
2021/08/02 11:53:32;;;;;;;3.45;2.83;;;21.20;65.10;;;;;;5094097;28;20032;-57
2021/08/02 11:55:57;;;;;;;3.13;2.50;;;21.00;64.90;;;;;;5075340;28;20436;-55
2021/08/02 11:58:23;;;;;;;3.17;2.50;;;20.90;65.10;;;;;;5093768;28;20062;-58
2021/08/02 12:00:59;;;;;;;3.15;2.58;;;21.00;65.10;;;;;;5091274;28;20484;-54
2021/08/02 12:03:24;;;;;;;6.07;2.58;;;21.20;65.00;;;;;;5074697;28;20032;-59
2021/08/02 12:06:01;;;;;;;4.05;2.50;;;21.40;65.50;;;;;;5094137;28;20024;-56
2021/08/02 12:08:28;;;;;;;3.15;2.40;;;21.80;65.20;;;;;;5090551;28;20032;-56
2021/08/02 12:10:59;;;;;;;3.40;2.30;;;21.70;65.80;;;;;;5088977;28;20085;-53
2021/08/02 12:13:36;;;;;;;3.90;2.80;;;22.00;64.50;;;;;;5096034;28;20030;-54
2021/08/02 12:16:01;;;;;;;2.80;2.25;;;22.00;63.90;;;;;;5081287;28;20028;-56
2021/08/02 12:18:29;;;;;;;3.25;2.40;;;21.70;64.50;;;;;;5088728;28;20036;-57
2021/08/02 12:20:56;;;;;;;3.58;2.58;;;21.60;65.40;;;;;;5085573;28;20037;-58
2021/08/02 12:23:24;;;;;;;4.25;2.53;;;21.70;65.20;;;;;;5091640;28;20153;-57
2021/08/02 12:25:50;;;;;;;3.17;2.53;;;22.00;65.40;;;;;;5090095;28;20422;-56
2021/08/02 12:28:16;;;;;;;4.97;3.55;;;22.00;64.00;;;;;;5091075;28;20036;-56
2021/08/02 12:30:43;;;;;;;6.00;2.92;;;22.10;63.30;;;;;;5093864;28;20043;-59
2021/08/02 12:33:12;;;;;;;3.33;2.92;;;22.30;63.10;;;;;;5077887;28;20496;-55
2021/08/02 12:35:41;;;;;;;5.05;2.80;;;22.10;62.80;;;;;;5078007;28;20556;-58
2021/08/02 12:38:08;;;;;;;3.60;3.03;;;21.70;64.00;;;;;;5082080;28;20047;-59
2021/08/02 12:40:33;;;;;;;5.00;3.00;;;21.60;65.90;;;;;;5098026;28;20031;-56
2021/08/02 12:43:00;;;;;;;4.35;3.10;;;21.70;64.90;;;;;;5096767;28;20391;-56
2021/08/02 12:45:26;;;;;;;3.67;2.90;;;21.80;64.60;;;;;;5097404;28;20024;-58
2021/08/02 12:47:54;;;;;;;4.07;3.30;;;22.10;65.30;;;;;;5094920;28;20066;-56